map of UNK home
UNK - Airport
Location
City:  Unalakleet, Alaska, United States
ICAO:PAUN
IATA:UNK
FAA LID:UNK

Details
Type:Airport (Airfield)
Use:Public/Civil
Latitude:6353'19"N (63.888500)
Longitude:16047'57"W (-160.799110)
Datum:WGS 1984
Elevation:27 ft (8 m)
Variation:11.69E (WMM2015v2 magnetic declination)
-0.36 annual change
Runways:2
Longest:5900 × 150 ft (1798 × 45.5 m), paved

Time
Time Zone:UTC-9 (DST-8)
Local Time:

Weather
METAR:PAUN 041356Z AUTO 08008KT 10SM SCT012 M04/M05 A3003 RMK AO2 SLP174 T10391050 FZRANO
TAF:PAUN 041140Z 0412/0512 VRB06KT 6SM BR OVC012
FM041500 09008KT P6SM FEW012 SCT100
FM041800 09015KT P6SM FEW050 SCT100
FM050000 09025KT 6SM BLSN SCT050 BKN100 OVC200
FM050600 09032KT 4SM -SN BLSN BR SCT015 BKN025 OVC035

Related Locations
Nearby:
Farthest:NZSP: 10619 mi / 17089 km
Amundsen-Scott South Pole Station [Jack F. Paulus Skiway], AQ

Find:

   beyond  
but within

Other Information
Maps:
NOTAMs:
Links:
Sources:

  
  • flag of United States
  • flag of Alaska
  

Sectional Chart

Flight Planning
at skyvector.com

Satellite Image

Google Maps Satellite view

 

Copyright © 2004-2019 Karl L. Swartz. All rights reserved.
The Great Circle Mapper name and logo are trademarks of the Great Circle Mapper.
All other trademarks mentioned herein belong to their respective owners.
Please see credits for attibutions and further copyright information.

  Follow gcmap on Facebook Follow gcmap on Twitter GCmap on LinkedIn

hCard Microformat

Geo Microformat